Time;durP1;ratioP1;P1;durP2;ratioP2;P2;SDS_P1;SDS_P2;PMS_P1;PMS_P2;Temp;Humidity;BMP_temperature;BMP_pressure;BME280_temperature;BME280_humidity;BME280_pressure;Samples;Min_cycle;Max_cycle;Signal;HPM_P1;HPM_P2
2021/04/01 00:02:19;;;;;;;3.05;1.58;;;12.40;99.90;;;;;;4398785;32;20762;-76
2021/04/01 00:04:44;;;;;;;2.58;1.33;;;12.40;99.90;;;;;;4400459;32;20066;-76
2021/04/01 00:07:12;;;;;;;1.08;0.80;;;12.50;99.90;;;;;;4400197;32;20438;-76
2021/04/01 00:09:38;;;;;;;17.35;1.62;;;12.60;99.90;;;;;;4399399;32;20467;-76
2021/04/01 00:12:04;;;;;;;0.70;0.70;;;12.50;99.90;;;;;;4397451;32;20174;-76
2021/04/01 00:14:33;;;;;;;1.42;0.88;;;12.50;99.90;;;;;;4385769;32;20249;-76
2021/04/01 00:16:58;;;;;;;2.50;1.20;;;12.50;99.90;;;;;;4384637;32;20062;-76
2021/04/01 00:19:24;;;;;;;0.82;0.73;;;12.50;99.90;;;;;;4384254;32;20079;-76
2021/04/01 00:21:49;;;;;;;1.73;1.40;;;12.50;99.90;;;;;;4384860;32;20507;-76
2021/04/01 00:24:15;;;;;;;1.40;1.17;;;12.50;99.90;;;;;;4384293;32;20118;-76
2021/04/01 00:26:41;;;;;;;0.57;0.57;;;12.50;99.90;;;;;;4384112;32;20074;-76
2021/04/01 00:29:06;;;;;;;2.53;1.42;;;12.50;99.90;;;;;;4385677;32;20078;-76
2021/04/01 00:31:32;;;;;;;2.20;1.37;;;12.50;99.90;;;;;;4384328;32;20117;-76
2021/04/01 00:33:58;;;;;;;2.35;2.00;;;12.50;99.90;;;;;;4383861;32;20078;-76
2021/04/01 00:36:23;;;;;;;11.90;2.90;;;12.50;99.90;;;;;;4383796;32;20062;-76
2021/04/01 00:38:49;;;;;;;2.22;0.90;;;12.60;99.90;;;;;;4383948;32;20549;-76
2021/04/01 00:41:15;;;;;;;2.22;1.05;;;12.60;99.90;;;;;;4383964;32;20122;-76
2021/04/01 00:43:40;;;;;;;1.73;1.37;;;12.50;99.90;;;;;;4385022;32;20122;-75
2021/04/01 00:46:06;;;;;;;3.30;1.75;;;12.20;99.90;;;;;;4384139;32;20062;-75
2021/04/01 00:48:31;;;;;;;1.27;0.93;;;12.00;99.90;;;;;;4383395;32;20086;-77
2021/04/01 00:50:56;;;;;;;3.62;1.52;;;12.10;99.90;;;;;;4385656;32;20070;-76
2021/04/01 00:53:22;;;;;;;0.85;0.77;;;12.20;99.90;;;;;;4384198;32;20070;-76
2021/04/01 00:55:48;;;;;;;1.48;1.23;;;12.30;99.90;;;;;;4384599;32;20082;-76
2021/04/01 00:58:13;;;;;;;0.70;0.70;;;12.30;99.90;;;;;;4385140;32;20374;-76
2021/04/01 01:00:39;;;;;;;3.12;1.33;;;12.30;99.90;;;;;;4384731;32;20487;-76
2021/04/01 01:03:05;;;;;;;1.95;0.90;;;12.30;99.90;;;;;;4384398;32;20070;-76
2021/04/01 01:05:33;;;;;;;1.58;0.77;;;12.30;99.90;;;;;;4384531;32;20151;-76
2021/04/01 01:08:00;;;;;;;0.85;0.70;;;12.40;99.90;;;;;;4383981;32;20511;-76
2021/04/01 01:10:29;;;;;;;1.48;1.15;;;12.40;99.90;;;;;;4383596;32;20079;-76
2021/04/01 01:12:56;;;;;;;0.82;0.82;;;12.40;99.90;;;;;;4384267;32;20067;-76
2021/04/01 01:15:22;;;;;;;3.50;1.08;;;12.40;99.90;;;;;;4383098;32;20603;-76
2021/04/01 01:17:50;;;;;;;18.52;1.33;;;12.40;99.90;;;;;;4384411;32;20066;-76
2021/04/01 01:20:16;;;;;;;2.25;1.45;;;12.30;99.90;;;;;;4383596;32;20433;-76
2021/04/01 01:22:42;;;;;;;4.55;1.77;;;11.90;99.90;;;;;;4384347;32;20091;-76
2021/04/01 01:25:10;;;;;;;2.28;1.25;;;11.60;99.90;;;;;;4382783;32;20073;-76
2021/04/01 01:27:36;;;;;;;1.40;0.93;;;11.60;99.90;;;;;;4385279;32;20370;-76
2021/04/01 01:30:06;;;;;;;0.73;0.73;;;11.80;99.90;;;;;;4383544;32;20078;-76
2021/04/01 01:32:37;;;;;;;1.45;0.95;;;11.90;99.90;;;;;;4383727;32;20523;-76
2021/04/01 01:35:13;;;;;;;7.05;0.80;;;12.00;99.90;;;;;;4383668;32;20124;-77
2021/04/01 01:37:45;;;;;;;2.28;0.98;;;12.00;99.90;;;;;;4384504;32;20434;-76
2021/04/01 01:40:11;;;;;;;0.82;0.82;;;11.90;99.90;;;;;;4383392;32;20510;-76
2021/04/01 01:42:37;;;;;;;0.68;0.60;;;11.80;99.90;;;;;;4383416;32;20175;-76
2021/04/01 01:45:02;;;;;;;4.97;1.00;;;11.70;99.90;;;;;;4383298;32;20120;-76
2021/04/01 01:47:28;;;;;;;1.15;0.95;;;11.70;99.90;;;;;;4383437;32;20523;-76
2021/04/01 01:49:53;;;;;;;3.10;1.33;;;11.60;99.90;;;;;;4383952;32;20074;-76
2021/04/01 01:52:19;;;;;;;1.10;1.00;;;11.70;99.90;;;;;;4383514;32;20087;-76
2021/04/01 01:54:44;;;;;;;2.90;1.00;;;11.70;99.90;;;;;;4383550;32;20444;-76
2021/04/01 01:57:10;;;;;;;0.50;0.50;;;11.50;99.90;;;;;;4384177;32;20094;-76
2021/04/01 01:59:35;;;;;;;3.22;1.45;;;11.30;99.90;;;;;;4384030;32;20122;-76
2021/04/01 02:02:01;;;;;;;0.77;0.77;;;11.40;99.90;;;;;;4383659;32;20409;-76
2021/04/01 02:04:26;;;;;;;2.12;1.12;;;11.50;99.90;;;;;;4384258;32;20129;-76
2021/04/01 02:06:52;;;;;;;13.52;1.15;;;11.60;99.90;;;;;;4383712;32;20065;-76
2021/04/01 02:09:20;;;;;;;1.98;1.35;;;11.60;99.90;;;;;;4382758;32;20063;-76
2021/04/01 02:11:46;;;;;;;0.77;0.65;;;11.50;99.90;;;;;;4384431;32;20079;-76
2021/04/01 02:14:11;;;;;;;0.93;0.80;;;11.20;99.90;;;;;;4384745;32;20078;-76
2021/04/01 02:16:37;;;;;;;7.35;1.73;;;11.00;99.90;;;;;;4383524;32;20070;-76
2021/04/01 02:19:03;;;;;;;11.35;2.20;;;10.90;99.90;;;;;;4382909;32;20067;-76
2021/04/01 02:21:28;;;;;;;16.62;1.15;;;10.90;99.90;;;;;;4382823;32;20070;-76
2021/04/01 02:23:54;;;;;;;4.43;1.20;;;10.90;99.90;;;;;;4383169;32;20086;-76
2021/04/01 02:26:19;;;;;;;15.38;1.75;;;11.00;99.90;;;;;;4381638;32;20124;-76
2021/04/01 02:28:45;;;;;;;6.43;1.20;;;11.00;99.90;;;;;;4382732;32;20067;-76
2021/04/01 02:31:19;;;;;;;0.82;0.80;;;11.00;99.90;;;;;;4382601;32;20520;-76
2021/04/01 02:33:44;;;;;;;3.97;2.25;;;11.00;99.90;;;;;;4383023;32;20071;-76
2021/04/01 02:36:10;;;;;;;1.77;0.95;;;11.00;99.90;;;;;;4383482;32;20421;-76
2021/04/01 02:38:35;;;;;;;28.87;1.15;;;11.00;99.90;;;;;;4382768;32;20071;-76
2021/04/01 02:41:01;;;;;;;0.90;0.90;;;11.00;99.90;;;;;;4382989;32;20082;-76
2021/04/01 02:43:32;;;;;;;0.90;0.90;;;11.20;99.90;;;;;;4383352;32;20171;-76
2021/04/01 02:45:59;;;;;;;1.37;0.82;;;11.30;99.90;;;;;;4382549;32;20121;-76
2021/04/01 02:48:24;;;;;;;2.25;1.45;;;11.40;99.90;;;;;;4382798;32;20579;-76
2021/04/01 02:50:50;;;;;;;1.10;0.95;;;11.40;99.90;;;;;;4383993;32;20078;-76
2021/04/01 02:53:16;;;;;;;4.70;1.62;;;11.20;99.90;;;;;;4382999;32;20118;-76
2021/04/01 02:55:42;;;;;;;1.25;0.90;;;11.00;99.90;;;;;;4381943;32;20066;-76
2021/04/01 02:58:08;;;;;;;0.70;0.70;;;10.90;99.90;;;;;;4383973;32;20070;-76
2021/04/01 03:00:35;;;;;;;6.07;2.00;;;11.00;99.90;;;;;;4383293;32;20392;-76
2021/04/01 03:03:36;;;;;;;0.70;0.70;;;11.10;99.90;;;;;;4383557;32;20070;-76
2021/04/01 03:05:46;;;;;;;1.75;1.05;;;10.90;99.90;;;;;;4371590;32;20075;-76
2021/04/01 03:08:12;;;;;;;2.50;1.20;;;10.80;99.90;;;;;;4382663;32;20078;-76
2021/04/01 03:10:38;;;;;;;1.20;0.98;;;10.90;99.90;;;;;;4382096;32;20519;-76
2021/04/01 03:13:03;;;;;;;2.53;1.27;;;11.10;99.90;;;;;;4382416;32;20066;-76
2021/04/01 03:15:29;;;;;;;3.12;1.33;;;11.20;99.90;;;;;;4384089;32;20408;-76
2021/04/01 03:17:54;;;;;;;6.18;1.23;;;11.30;99.90;;;;;;4382398;32;20058;-76
2021/04/01 03:20:20;;;;;;;12.23;1.20;;;11.10;99.90;;;;;;4383610;32;20075;-76
2021/04/01 03:22:46;;;;;;;0.70;0.70;;;11.30;99.90;;;;;;4381952;32;20133;-76
2021/04/01 03:25:13;;;;;;;4.60;1.35;;;11.40;99.90;;;;;;4381566;32;20079;-76
2021/04/01 03:27:39;;;;;;;11.95;1.02;;;11.40;99.90;;;;;;4383078;32;20429;-76
2021/04/01 03:30:09;;;;;;;1.30;0.88;;;11.40;99.90;;;;;;4382879;32;20073;-76
2021/04/01 03:32:39;;;;;;;3.60;1.45;;;11.30;99.90;;;;;;4382273;32;20083;-76
2021/04/01 03:35:07;;;;;;;23.10;3.53;;;11.30;99.90;;;;;;4382379;32;20129;-76
2021/04/01 03:37:33;;;;;;;4.75;0.93;;;11.40;99.90;;;;;;4383869;32;20413;-77
2021/04/01 03:39:59;;;;;;;5.05;1.65;;;11.50;99.90;;;;;;4384956;32;20439;-77
2021/04/01 03:42:25;;;;;;;4.12;0.80;;;11.50;99.90;;;;;;4384287;32;20117;-76
2021/04/01 03:44:51;;;;;;;4.68;1.62;;;11.30;99.90;;;;;;4385348;32;20075;-76
2021/04/01 03:47:17;;;;;;;4.60;1.23;;;11.10;99.90;;;;;;4386527;32;20445;-76
2021/04/01 03:49:42;;;;;;;1.00;0.80;;;11.00;99.90;;;;;;4385520;32;20066;-76
2021/04/01 03:52:08;;;;;;;1.67;1.15;;;10.80;99.90;;;;;;4384820;32;20534;-76
2021/04/01 03:54:34;;;;;;;1.20;0.77;;;10.70;99.90;;;;;;4384688;32;20086;-76
2021/04/01 03:57:02;;;;;;;10.20;1.40;;;10.70;99.90;;;;;;4384448;32;20091;-76
2021/04/01 03:59:38;;;;;;;1.52;1.00;;;10.60;99.90;;;;;;4385731;32;20579;-76
2021/04/01 04:02:13;;;;;;;0.75;0.75;;;10.70;99.90;;;;;;4386348;32;20468;-76
2021/04/01 04:04:48;;;;;;;1.90;1.15;;;10.80;99.90;;;;;;4386430;32;20071;-76
2021/04/01 04:07:34;;;;;;;2.83;1.62;;;11.10;99.90;;;;;;4385380;32;20508;-76
2021/04/01 04:10:10;;;;;;;3.75;1.20;;;11.20;99.90;;;;;;4384366;32;20078;-76
2021/04/01 04:12:46;;;;;;;1.27;1.17;;;11.20;99.90;;;;;;4386263;32;20090;-76
2021/04/01 04:15:17;;;;;;;0.77;0.77;;;11.20;99.90;;;;;;4385168;32;20186;-76
2021/04/01 04:17:44;;;;;;;0.70;0.70;;;11.20;99.90;;;;;;4384464;32;20070;-76
2021/04/01 04:20:10;;;;;;;0.90;0.85;;;11.20;99.90;;;;;;4384724;32;20549;-76
2021/04/01 04:22:36;;;;;;;1.58;1.10;;;11.20;99.90;;;;;;4385012;32;20503;-77
2021/04/01 04:25:04;;;;;;;3.97;1.15;;;11.30;99.90;;;;;;4383578;32;20078;-77
2021/04/01 04:30:00;;;;;;;1.30;0.90;;;11.40;99.90;;;;;;4384398;32;20464;-77
2021/04/01 04:32:27;;;;;;;1.15;1.05;;;11.40;99.90;;;;;;4385066;32;20050;-77
2021/04/01 04:34:52;;;;;;;0.95;0.70;;;11.50;99.90;;;;;;4384625;32;20070;-77
2021/04/01 04:37:18;;;;;;;6.87;1.42;;;11.50;99.90;;;;;;4384078;32;20062;-77
2021/04/01 04:39:44;;;;;;;5.37;1.35;;;11.50;99.90;;;;;;4384291;32;20070;-76
2021/04/01 04:42:10;;;;;;;2.17;1.35;;;11.50;99.90;;;;;;4384426;32;20066;-77
2021/04/01 04:44:35;;;;;;;1.37;0.80;;;11.50;99.90;;;;;;4384502;32;20523;-77
2021/04/01 04:47:01;;;;;;;0.95;0.82;;;11.50;99.90;;;;;;4385586;32;20118;-77
2021/04/01 04:49:26;;;;;;;0.60;0.60;;;11.40;99.90;;;;;;4383376;32;20071;-77
2021/04/01 04:51:52;;;;;;;2.08;0.90;;;11.40;99.90;;;;;;4385183;32;20069;-77
2021/04/01 04:54:17;;;;;;;1.83;1.23;;;11.40;99.90;;;;;;4383384;32;20129;-77
2021/04/01 04:56:44;;;;;;;0.55;0.55;;;11.10;99.90;;;;;;4385405;32;20086;-77
2021/04/01 04:59:14;;;;;;;0.65;0.65;;;11.00;99.90;;;;;;4385717;32;20091;-77
2021/04/01 05:05:00;;;;;;;3.35;1.08;;;11.30;99.90;;;;;;4367731;32;20134;-77
2021/04/01 05:07:11;;;;;;;4.07;1.50;;;11.40;99.90;;;;;;4357953;32;20143;-77
2021/04/01 05:09:36;;;;;;;4.90;2.25;;;11.40;99.90;;;;;;4375657;32;20090;-77
2021/04/01 05:12:02;;;;;;;0.62;0.62;;;11.40;99.90;;;;;;4380501;32;20070;-77
2021/04/01 05:14:28;;;;;;;1.92;1.23;;;11.50;99.90;;;;;;4382803;32;20086;-77
2021/04/01 05:16:54;;;;;;;3.22;1.55;;;11.50;99.90;;;;;;4399305;32;20185;-76
2021/04/01 05:19:20;;;;;;;1.80;0.73;;;11.50;99.90;;;;;;4392324;32;20086;-76
2021/04/01 05:21:52;;;;;;;5.32;2.05;;;11.60;99.90;;;;;;4383457;32;20070;-76
2021/04/01 05:24:20;;;;;;;0.93;0.60;;;11.60;99.90;;;;;;4383963;32;20492;-78
2021/04/01 05:27:02;;;;;;;1.40;1.12;;;11.50;99.90;;;;;;4385180;32;20125;-77
2021/04/01 05:29:30;;;;;;;1.08;1.00;;;11.50;99.90;;;;;;4383833;32;20100;-77
2021/04/01 05:31:56;;;;;;;1.30;1.00;;;11.60;99.90;;;;;;4385236;32;20118;-78
2021/04/01 05:34:24;;;;;;;0.65;0.65;;;11.60;99.90;;;;;;4384192;32;20083;-77
2021/04/01 05:36:51;;;;;;;2.95;1.83;;;11.60;99.90;;;;;;4384733;32;20079;-77
2021/04/01 05:39:18;;;;;;;1.58;1.27;;;11.80;99.90;;;;;;4385819;32;20794;-79
2021/04/01 05:41:48;;;;;;;0.60;0.60;;;11.90;99.90;;;;;;4384974;32;20059;-78
2021/04/01 05:44:20;;;;;;;0.85;0.85;;;12.00;99.90;;;;;;4384993;32;20070;-77
2021/04/01 05:47:18;;;;;;;1.87;0.73;;;12.00;99.90;;;;;;4384584;32;20075;-77
2021/04/01 05:49:48;;;;;;;1.45;0.90;;;12.20;99.90;;;;;;4373010;32;20074;-77
2021/04/01 06:04:06;;;;;;;8.10;0.70;;;12.80;99.90;;;;;;4384371;32;20122;-77
2021/04/01 06:05:42;;;;;;;1.20;0.80;;;13.00;99.90;;;;;;4373768;32;20086;-77
2021/04/01 06:08:16;;;;;;;3.87;1.00;;;13.00;99.90;;;;;;4383916;32;20590;-77
2021/04/01 06:10:42;;;;;;;1.23;1.00;;;13.20;99.90;;;;;;4384877;32;20147;-78
2021/04/01 06:13:10;;;;;;;1.48;0.88;;;13.10;99.90;;;;;;4383590;32;20070;-77
2021/04/01 06:15:36;;;;;;;6.68;1.00;;;13.10;99.90;;;;;;4383419;32;20078;-78
2021/04/01 06:18:12;;;;;;;1.12;1.02;;;13.20;99.90;;;;;;4384372;32;20062;-77
2021/04/01 06:20:41;;;;;;;11.88;2.03;;;13.30;99.90;;;;;;4384134;32;20063;-77
2021/04/01 06:23:07;;;;;;;1.75;1.42;;;13.40;99.90;;;;;;4383489;32;20525;-77
2021/04/01 06:25:37;;;;;;;0.77;0.77;;;13.40;99.90;;;;;;4384315;32;20070;-77
2021/04/01 06:28:06;;;;;;;3.35;1.60;;;13.30;99.90;;;;;;4384213;32;20078;-77
2021/04/01 06:30:44;;;;;;;1.10;1.00;;;13.30;99.90;;;;;;4382986;32;20153;-77
2021/04/01 06:33:11;;;;;;;2.20;1.50;;;13.40;99.90;;;;;;4383884;32;20089;-77
2021/04/01 06:35:47;;;;;;;3.22;1.58;;;13.40;99.90;;;;;;4384011;32;20075;-77
2021/04/01 06:40:50;;;;;;;2.12;1.12;;;13.60;99.90;;;;;;4382613;32;20121;-77
2021/04/01 06:43:21;;;;;;;0.90;0.90;;;13.70;99.90;;;;;;4383158;32;20085;-77
2021/04/01 06:45:52;;;;;;;0.75;0.75;;;13.80;99.90;;;;;;4382899;32;20523;-77
2021/04/01 06:48:22;;;;;;;1.85;1.50;;;13.80;99.90;;;;;;4382611;32;20094;-77
2021/04/01 06:50:49;;;;;;;13.05;1.42;;;13.90;99.90;;;;;;4382172;32;20062;-77
2021/04/01 06:53:25;;;;;;;3.15;1.10;;;13.90;99.90;;;;;;4384416;32;20354;-77
2021/04/01 06:56:03;;;;;;;1.65;1.30;;;13.90;99.70;;;;;;4381918;32;20539;-77
2021/04/01 06:58:41;;;;;;;1.85;1.08;;;13.90;99.90;;;;;;4384196;32;20151;-77
2021/04/01 07:01:19;;;;;;;10.43;2.08;;;14.00;99.90;;;;;;4382696;32;20058;-77
2021/04/01 07:03:55;;;;;;;1.95;1.10;;;14.10;99.60;;;;;;4370620;32;20075;-77
2021/04/01 07:06:26;;;;;;;1.10;1.02;;;14.10;99.90;;;;;;4371753;32;20120;-77
2021/04/01 07:08:57;;;;;;;0.93;0.70;;;14.20;99.90;;;;;;4382763;32;20067;-77
2021/04/01 07:11:42;;;;;;;4.32;1.62;;;14.20;99.90;;;;;;4381772;32;20122;-77
2021/04/01 07:14:13;;;;;;;2.15;1.00;;;14.20;99.90;;;;;;4381956;32;20534;-78
2021/04/01 07:17:17;;;;;;;4.45;2.10;;;14.30;99.90;;;;;;4383433;32;20086;-77
2021/04/01 07:34:37;;;;;;;2.28;1.10;;;14.50;99.90;;;;;;4370554;32;20125;-76
2021/04/01 07:45:16;;;;;;;1.62;1.25;;;14.90;98.90;;;;;;4370946;32;20420;-76
2021/04/01 07:47:58;;;;;;;12.18;2.67;;;15.10;99.40;;;;;;4372689;32;20098;-76
2021/04/01 07:50:25;;;;;;;19.00;2.58;;;15.20;99.10;;;;;;4396681;32;20082;-76
2021/04/01 07:52:55;;;;;;;0.70;0.70;;;15.30;99.10;;;;;;4396532;32;20091;-76
2021/04/01 07:55:30;;;;;;;2.05;1.10;;;15.40;98.50;;;;;;4396228;32;20066;-76
2021/04/01 08:03:52;;;;;;;5.12;1.10;;;15.60;97.50;;;;;;4370034;32;20148;-76
2021/04/01 08:06:09;;;;;;;2.55;1.37;;;15.70;97.30;;;;;;4371001;32;20070;-76
2021/04/01 08:08:43;;;;;;;6.53;1.55;;;15.60;97.20;;;;;;4381869;32;20087;-76
2021/04/01 08:11:11;;;;;;;2.72;1.87;;;15.70;97.40;;;;;;4382204;32;20079;-76
2021/04/01 08:13:46;;;;;;;2.72;1.65;;;15.70;97.30;;;;;;4383581;32;20082;-76
2021/04/01 08:16:16;;;;;;;3.25;1.50;;;15.90;97.10;;;;;;4383384;32;20074;-76
2021/04/01 08:18:44;;;;;;;1.67;0.90;;;16.20;97.00;;;;;;4382359;32;20066;-76
2021/04/01 08:21:16;;;;;;;2.22;1.45;;;16.30;96.40;;;;;;4383198;32;20071;-76
2021/04/01 08:23:59;;;;;;;2.67;1.83;;;16.50;96.70;;;;;;4383094;32;20087;-76
2021/04/01 08:26:40;;;;;;;2.67;2.15;;;16.70;96.10;;;;;;4384199;32;20456;-76
2021/04/01 08:29:45;;;;;;;1.87;1.37;;;16.90;95.30;;;;;;4383870;32;20117;-76
2021/04/01 08:32:15;;;;;;;1.05;1.00;;;17.10;95.00;;;;;;4372844;32;20452;-76
2021/04/01 08:34:41;;;;;;;1.48;1.10;;;17.40;94.50;;;;;;4384672;32;20059;-75
2021/04/01 08:37:09;;;;;;;13.45;1.98;;;17.60;94.50;;;;;;4384329;32;20073;-77
2021/04/01 08:39:36;;;;;;;4.78;2.35;;;17.50;93.60;;;;;;4385967;32;20061;-77
2021/04/01 08:42:12;;;;;;;1.75;1.27;;;17.30;93.60;;;;;;4385857;32;20396;-77
2021/04/01 08:45:21;;;;;;;4.32;2.08;;;17.30;93.40;;;;;;4386327;32;20087;-77
2021/04/01 08:47:53;;;;;;;3.62;1.95;;;17.40;92.20;;;;;;4374557;32;20070;-77
2021/04/01 08:50:31;;;;;;;2.12;1.33;;;17.50;92.20;;;;;;4384334;32;20067;-77
2021/04/01 08:53:12;;;;;;;19.80;1.95;;;17.40;92.60;;;;;;4384114;32;20430;-76
2021/04/01 08:55:45;;;;;;;2.25;1.52;;;17.40;93.10;;;;;;4383524;32;20067;-76
2021/04/01 08:58:41;;;;;;;1.77;1.48;;;17.30;93.20;;;;;;4377236;32;20074;-76
2021/04/01 09:01:18;;;;;;;2.67;1.50;;;17.30;92.60;;;;;;4359396;32;20202;-76
2021/04/01 09:03:47;;;;;;;1.30;1.20;;;17.30;92.60;;;;;;4368260;32;20067;-76
2021/04/01 09:06:17;;;;;;;4.12;2.22;;;17.10;92.50;;;;;;4370558;32;20086;-76
2021/04/01 09:08:47;;;;;;;1.37;1.00;;;17.10;92.40;;;;;;4383588;32;20086;-76
2021/04/01 09:11:17;;;;;;;1.98;1.30;;;17.00;92.10;;;;;;4384376;32;20434;-76
2021/04/01 09:13:52;;;;;;;9.30;2.37;;;17.00;92.30;;;;;;4383238;32;20086;-76
2021/04/01 09:16:23;;;;;;;2.67;1.35;;;17.00;91.90;;;;;;4384055;32;20149;-76
2021/04/01 09:18:48;;;;;;;6.15;2.67;;;17.00;91.80;;;;;;4384033;32;20602;-77
2021/04/01 09:21:14;;;;;;;4.55;1.45;;;17.00;91.70;;;;;;4385592;32;20062;-77
2021/04/01 09:23:43;;;;;;;3.55;1.65;;;17.00;91.80;;;;;;4384215;32;20614;-77
2021/04/01 09:26:11;;;;;;;5.60;2.75;;;16.90;92.80;;;;;;4383300;32;20059;-77
2021/04/01 09:28:39;;;;;;;3.60;2.17;;;16.90;93.50;;;;;;4384431;32;20070;-77
2021/04/01 09:31:07;;;;;;;1.65;1.33;;;17.00;93.10;;;;;;4383547;32;20091;-77
2021/04/01 09:33:35;;;;;;;2.60;1.67;;;17.10;94.00;;;;;;4384526;32;20087;-77
2021/04/01 09:36:07;;;;;;;7.25;2.20;;;17.10;93.50;;;;;;4382661;32;20066;-77
2021/04/01 09:38:38;;;;;;;1.52;1.42;;;17.10;93.30;;;;;;4380417;32;90935;-76
2021/04/01 09:41:04;;;;;;;2.20;1.98;;;17.10;94.00;;;;;;4383468;32;20066;-76
2021/04/01 09:43:30;;;;;;;4.22;2.25;;;17.10;93.90;;;;;;4384598;32;20087;-76
2021/04/01 09:45:58;;;;;;;2.08;1.12;;;17.20;94.10;;;;;;4384277;32;20086;-76
2021/04/01 09:48:28;;;;;;;2.30;1.15;;;17.20;93.70;;;;;;4384774;32;20130;-76
2021/04/01 09:50:59;;;;;;;1.35;1.27;;;17.20;93.30;;;;;;4383604;32;20091;-76
2021/04/01 09:53:25;;;;;;;;;;;17.20;93.40;;;;;;4384137;32;20128;-76
2021/04/01 09:55:55;;;;;;;3.28;1.42;;;17.20;94.20;;;;;;4381596;32;20338;-76
2021/04/01 09:58:41;;;;;;;3.95;1.37;;;17.20;93.20;;;;;;4384108;32;20121;-76
2021/04/01 10:01:48;;;;;;;2.80;1.58;;;17.10;93.70;;;;;;4372048;32;20146;-76
2021/04/01 10:04:09;;;;;;;1.12;1.05;;;17.10;94.50;;;;;;4371835;32;20193;-76
2021/04/01 10:06:44;;;;;;;5.53;2.25;;;17.30;95.10;;;;;;4382918;32;20079;-76
2021/04/01 10:09:13;;;;;;;5.30;1.45;;;17.40;94.50;;;;;;4383215;32;20086;-76
2021/04/01 10:11:44;;;;;;;5.62;1.48;;;17.60;94.10;;;;;;4383333;32;20066;-77
2021/04/01 10:14:11;;;;;;;7.22;1.80;;;17.70;95.00;;;;;;4383138;32;20082;-77
2021/04/01 10:16:49;;;;;;;4.07;1.80;;;17.90;92.90;;;;;;4383278;32;20503;-77
2021/04/01 10:19:15;;;;;;;1.17;1.08;;;18.00;93.10;;;;;;4384078;32;20583;-76
2021/04/01 10:21:48;;;;;;;9.23;2.65;;;18.10;92.60;;;;;;4382393;32;20155;-77
2021/04/01 10:24:34;;;;;;;7.85;1.70;;;18.10;91.90;;;;;;4367280;32;20090;-76
2021/04/01 10:27:20;;;;;;;7.22;2.10;;;18.00;92.70;;;;;;4369449;32;20519;-77
2021/04/01 10:32:31;;;;;;;5.00;2.15;;;17.90;91.30;;;;;;4369564;32;20138;-77
2021/04/01 10:35:02;;;;;;;5.07;1.87;;;17.90;91.20;;;;;;4368189;32;20055;-77
2021/04/01 10:37:30;;;;;;;2.15;1.60;;;18.00;91.30;;;;;;4367794;32;20054;-77
2021/04/01 10:39:59;;;;;;;6.75;3.12;;;18.00;90.90;;;;;;4369288;32;20058;-78
2021/04/01 10:42:28;;;;;;;2.25;1.12;;;18.00;90.70;;;;;;4367653;32;20142;-77
2021/04/01 10:45:01;;;;;;;10.35;3.92;;;18.00;90.60;;;;;;4369171;32;20092;-77
2021/04/01 10:47:49;;;;;;;3.92;1.80;;;18.00;91.10;;;;;;4361967;32;20516;-76
2021/04/01 10:50:15;;;;;;;31.75;3.90;;;18.00;90.70;;;;;;4367974;32;20098;-77
2021/04/01 10:52:41;;;;;;;9.35;1.80;;;18.00;90.70;;;;;;4368731;32;20059;-76
2021/04/01 10:55:07;;;;;;;3.22;1.55;;;18.00;90.40;;;;;;4367140;32;20645;-76
2021/04/01 10:57:34;;;;;;;20.60;3.05;;;18.00;91.10;;;;;;4366557;32;20082;-76
2021/04/01 11:00:17;;;;;;;6.65;2.17;;;18.00;90.50;;;;;;4368078;32;20087;-76
2021/04/01 11:02:49;;;;;;;11.07;1.50;;;18.00;91.80;;;;;;4367949;32;20103;-77
2021/04/01 11:05:19;;;;;;;3.83;2.22;;;18.00;90.80;;;;;;4367291;32;20067;-76
2021/04/01 11:08:00;;;;;;;4.13;2.07;;;17.90;90.30;;;;;;4379791;32;20050;-77
2021/04/01 11:10:28;;;;;;;10.95;4.40;;;17.90;90.40;;;;;;4375483;32;20132;-76
2021/04/01 11:12:59;;;;;;;4.22;1.65;;;17.80;90.50;;;;;;4368871;32;20504;-76
2021/04/01 11:15:29;;;;;;;22.75;2.40;;;17.70;90.70;;;;;;4368420;32;20074;-76
2021/04/01 11:18:03;;;;;;;3.55;1.60;;;17.70;90.50;;;;;;4368083;32;20118;-76
2021/04/01 11:20:33;;;;;;;5.22;2.17;;;17.70;90.90;;;;;;4369330;32;20065;-77
2021/04/01 11:23:02;;;;;;;2.80;1.75;;;17.60;94.40;;;;;;4375983;32;20066;-76
2021/04/01 11:25:28;;;;;;;3.33;1.62;;;17.30;95.40;;;;;;4382663;32;20190;-76
2021/04/01 11:27:55;;;;;;;26.08;2.33;;;17.20;95.80;;;;;;4384143;32;20094;-76
2021/04/01 11:30:21;;;;;;;14.57;4.03;;;17.20;93.60;;;;;;4382578;32;20158;-76
2021/04/01 11:32:57;;;;;;;7.10;1.85;;;17.30;94.80;;;;;;4385074;32;20172;-77
2021/04/01 11:35:24;;;;;;;2.42;1.33;;;17.20;93.30;;;;;;4383588;32;20079;-77
2021/04/01 11:37:53;;;;;;;5.05;2.30;;;17.20;91.90;;;;;;4384102;32;20079;-77
2021/04/01 11:40:19;;;;;;;5.32;2.10;;;17.20;92.20;;;;;;4383893;32;20425;-77
2021/04/01 11:42:54;;;;;;;4.12;2.47;;;17.30;92.90;;;;;;4383336;32;20061;-76
2021/04/01 11:45:32;;;;;;;14.52;2.37;;;17.30;93.60;;;;;;4382792;32;20082;-76
2021/04/01 11:47:58;;;;;;;7.82;2.35;;;17.20;94.20;;;;;;4368495;32;20097;-76
2021/04/01 11:50:24;;;;;;;6.82;2.10;;;17.20;92.60;;;;;;4368907;32;20078;-77
2021/04/01 11:52:55;;;;;;;3.45;1.80;;;17.20;91.90;;;;;;4367908;32;20074;-77
2021/04/01 11:55:21;;;;;;;4.30;1.50;;;17.10;92.80;;;;;;4371602;32;20241;-77
2021/04/01 11:57:56;;;;;;;4.68;2.55;;;17.10;92.80;;;;;;4382976;32;20070;-77
2021/04/01 12:00:27;;;;;;;12.77;3.37;;;17.00;94.00;;;;;;4385251;32;20118;-77
2021/04/01 12:05:25;;;;;;;4.10;1.42;;;17.00;95.00;;;;;;4385729;32;20102;-78
2021/04/01 12:07:51;;;;;;;3.72;2.30;;;17.00;93.40;;;;;;4385692;32;20070;-77
2021/04/01 12:10:17;;;;;;;6.50;2.12;;;17.00;93.20;;;;;;4387358;32;20058;-77
2021/04/01 12:12:43;;;;;;;6.18;1.83;;;17.00;94.00;;;;;;4386771;32;20066;-77
2021/04/01 12:15:10;;;;;;;3.03;2.05;;;17.00;94.30;;;;;;4386634;32;20082;-77
2021/04/01 12:17:40;;;;;;;16.92;2.08;;;16.90;94.60;;;;;;4385068;32;20079;-77
2021/04/01 12:20:11;;;;;;;6.63;1.83;;;16.80;92.80;;;;;;4385087;32;20138;-77
2021/04/01 12:22:40;;;;;;;4.10;2.00;;;16.70;91.30;;;;;;4385478;32;20400;-77
2021/04/01 12:25:09;;;;;;;4.82;2.67;;;16.80;92.30;;;;;;4385219;32;20094;-76
2021/04/01 12:27:35;;;;;;;1.58;1.48;;;16.70;92.50;;;;;;4385453;32;20086;-77
2021/04/01 12:30:02;;;;;;;3.40;1.98;;;16.80;93.20;;;;;;4386892;32;20397;-77
2021/04/01 12:32:30;;;;;;;8.57;3.22;;;16.80;93.80;;;;;;4386736;32;20051;-76
2021/04/01 12:35:07;;;;;;;8.45;2.05;;;16.60;94.40;;;;;;4386506;32;20062;-77
2021/04/01 12:37:33;;;;;;;7.57;2.78;;;16.60;95.50;;;;;;4386341;32;20131;-78
2021/04/01 12:40:10;;;;;;;12.20;2.35;;;16.60;95.60;;;;;;4386349;32;20066;-77
2021/04/01 12:42:37;;;;;;;5.10;1.67;;;16.70;94.30;;;;;;4385613;32;20066;-77
2021/04/01 12:45:14;;;;;;;2.42;1.23;;;16.70;94.30;;;;;;4385360;32;20464;-77
2021/04/01 12:47:39;;;;;;;6.00;2.28;;;17.10;93.70;;;;;;4399346;32;20070;-77
2021/04/01 12:50:06;;;;;;;7.85;2.40;;;17.70;93.00;;;;;;4400193;32;20066;-76
2021/04/01 12:52:45;;;;;;;8.43;1.58;;;18.20;91.70;;;;;;4400226;32;20078;-76
2021/04/01 12:55:13;;;;;;;4.60;1.83;;;19.00;91.90;;;;;;4398907;32;20066;-77
2021/04/01 12:57:41;;;;;;;3.35;2.45;;;19.90;90.20;;;;;;4397348;32;20079;-77
2021/04/01 13:00:09;;;;;;;6.43;1.80;;;20.50;88.60;;;;;;4385839;32;20091;-77
2021/04/01 13:02:34;;;;;;;8.52;1.98;;;20.90;86.40;;;;;;4385279;32;20555;-77
2021/04/01 13:05:03;;;;;;;7.78;2.78;;;20.90;85.50;;;;;;4384932;32;20130;-77
2021/04/01 13:10:56;;;;;;;2.25;1.55;;;20.10;87.00;;;;;;4385276;32;20135;-76
2021/04/01 13:12:42;;;;;;;6.53;1.45;;;20.00;88.40;;;;;;4373340;32;20153;-76
2021/04/01 13:15:07;;;;;;;0.75;0.75;;;19.70;88.40;;;;;;4384751;32;20135;-76
2021/04/01 13:17:33;;;;;;;4.70;1.92;;;19.40;91.00;;;;;;4385174;32;20074;-76
2021/04/01 13:19:59;;;;;;;7.40;2.33;;;19.50;90.40;;;;;;4386351;32;20077;-76
2021/04/01 13:22:28;;;;;;;2.20;1.02;;;19.40;90.50;;;;;;4385324;32;20050;-78
2021/04/01 13:25:10;;;;;;;5.53;1.90;;;19.20;90.40;;;;;;4385213;32;20063;-77
2021/04/01 13:27:38;;;;;;;2.50;1.30;;;19.10;90.30;;;;;;4384565;32;20129;-77
2021/04/01 13:30:06;;;;;;;2.70;1.65;;;18.90;90.80;;;;;;4384733;32;20606;-77
2021/04/01 13:33:01;;;;;;;4.15;1.67;;;18.70;90.70;;;;;;4385458;32;20437;-77
2021/04/01 13:35:31;;;;;;;4.72;2.12;;;18.60;90.70;;;;;;4373441;32;20078;-77
2021/04/01 13:38:05;;;;;;;6.20;2.00;;;18.70;90.20;;;;;;4384965;32;20071;-77
2021/04/01 13:40:31;;;;;;;2.70;1.70;;;18.60;90.90;;;;;;4384334;32;20074;-77
2021/04/01 13:43:02;;;;;;;8.27;2.33;;;18.30;90.00;;;;;;4384885;32;20066;-77
2021/04/01 13:45:28;;;;;;;1.30;1.20;;;18.20;90.50;;;;;;4384537;32;20563;-77
2021/04/01 13:48:00;;;;;;;3.03;1.55;;;18.20;90.40;;;;;;4384359;32;20067;-77
2021/04/01 13:50:27;;;;;;;4.82;1.80;;;18.00;90.70;;;;;;4384590;32;20496;-77
2021/04/01 13:55:34;;;;;;;8.73;2.80;;;17.80;91.70;;;;;;4383384;32;20527;-77
2021/04/01 14:04:27;;;;;;;4.30;1.70;;;18.30;91.80;;;;;;4384154;32;20102;-77